Time;durP1;ratioP1;P1;durP2;ratioP2;P2;SDS_P1;SDS_P2;PMS_P1;PMS_P2;Temp;Humidity;BMP_temperature;BMP_pressure;BME280_temperature;BME280_humidity;BME280_pressure;Samples;Min_cycle;Max_cycle;Signal;HPM_P1;HPM_P2
2022/01/05 00:00:07;;;;;;;16.93;16.13;;;6.80;84.30;;;;;;5087504;28;20055;-83
2022/01/05 00:02:35;;;;;;;17.30;16.50;;;6.70;84.30;;;;;;5085662;28;20033;-82
2022/01/05 00:05:04;;;;;;;17.53;16.57;;;6.70;84.30;;;;;;5085508;28;20036;-83
2022/01/05 00:07:30;;;;;;;17.10;16.30;;;6.80;84.40;;;;;;5069222;28;20032;-83
2022/01/05 00:09:56;;;;;;;16.70;15.90;;;6.70;84.40;;;;;;5069438;28;20481;-83
2022/01/05 00:12:22;;;;;;;16.60;15.80;;;6.70;84.30;;;;;;5072414;28;20036;-82
2022/01/05 00:14:48;;;;;;;16.80;16.00;;;6.70;84.30;;;;;;5070271;28;20478;-82
2022/01/05 00:17:15;;;;;;;16.93;16.13;;;6.80;84.30;;;;;;5069583;28;20052;-83
2022/01/05 00:19:41;;;;;;;16.10;15.40;;;6.80;84.30;;;;;;5053453;28;20055;-83
2022/01/05 00:22:07;;;;;;;16.87;16.07;;;6.80;84.30;;;;;;5069853;28;20032;-83
2022/01/05 00:24:33;;;;;;;16.17;15.40;;;6.80;84.20;;;;;;5053410;28;20043;-83
2022/01/05 00:26:59;;;;;;;16.73;15.93;;;6.80;84.20;;;;;;5071448;28;20458;-83
2022/01/05 00:29:25;;;;;;;18.63;16.83;;;6.70;84.10;;;;;;5069016;28;20039;-83
2022/01/05 00:31:51;;;;;;;16.60;15.80;;;6.70;84.10;;;;;;5051867;28;20524;-82
2022/01/05 00:34:17;;;;;;;17.53;16.73;;;6.70;84.10;;;;;;5070087;28;20039;-82
2022/01/05 00:36:43;;;;;;;16.73;15.93;;;6.70;84.20;;;;;;5052230;28;20392;-82
2022/01/05 00:39:09;;;;;;;17.93;16.93;;;6.70;84.20;;;;;;5087583;28;20059;-83
2022/01/05 00:41:35;;;;;;;16.77;15.97;;;6.70;84.20;;;;;;5102565;28;20036;-83
2022/01/05 00:44:02;;;;;;;17.23;16.43;;;6.70;84.10;;;;;;5085589;28;20036;-82
2022/01/05 00:46:28;;;;;;;17.50;16.70;;;6.70;84.20;;;;;;5069404;28;20037;-82
2022/01/05 00:48:54;;;;;;;16.80;16.00;;;6.70;84.20;;;;;;5069885;28;20055;-83
2022/01/05 00:51:20;;;;;;;17.10;16.30;;;6.70;84.20;;;;;;5082925;28;20039;-82
2022/01/05 00:53:46;;;;;;;17.37;16.57;;;6.70;84.20;;;;;;5070071;28;20044;-83
2022/01/05 00:56:12;;;;;;;16.20;15.50;;;6.70;84.30;;;;;;5052106;28;20036;-83
2022/01/05 00:58:38;;;;;;;16.70;15.90;;;6.70;84.20;;;;;;5071381;28;20421;-82
2022/01/05 01:01:04;;;;;;;17.03;16.23;;;6.70;84.20;;;;;;5070538;28;20041;-82
2022/01/05 01:03:30;;;;;;;17.20;16.40;;;6.70;84.20;;;;;;5056865;28;20040;-83
2022/01/05 01:05:56;;;;;;;15.93;15.23;;;6.70;84.10;;;;;;5107153;28;20028;-83
2022/01/05 01:08:22;;;;;;;16.40;15.63;;;6.70;84.10;;;;;;5073604;28;20033;-83
2022/01/05 01:10:49;;;;;;;16.57;15.80;;;6.70;84.10;;;;;;5073666;28;20365;-82
2022/01/05 01:13:17;;;;;;;16.93;16.13;;;6.80;84.20;;;;;;5073577;28;20043;-82
2022/01/05 01:15:52;;;;;;;16.53;15.77;;;6.80;84.10;;;;;;5072993;28;20056;-83
2022/01/05 01:18:19;;;;;;;17.63;16.83;;;6.80;84.00;;;;;;5107810;28;20036;-83
2022/01/05 01:20:47;;;;;;;17.20;16.40;;;6.80;84.00;;;;;;5088747;28;20489;-83
2022/01/05 01:23:14;;;;;;;17.60;16.80;;;6.80;84.00;;;;;;5105364;28;20028;-82
2022/01/05 01:25:40;;;;;;;17.50;16.70;;;6.80;84.00;;;;;;5088773;28;20021;-83
2022/01/05 01:28:06;;;;;;;17.30;16.50;;;6.80;84.00;;;;;;5073367;28;20043;-83
2022/01/05 01:30:33;;;;;;;18.17;16.83;;;6.70;83.90;;;;;;5074064;28;20029;-82
2022/01/05 01:32:59;;;;;;;17.57;16.77;;;6.70;83.90;;;;;;5056292;28;20036;-83
2022/01/05 01:35:26;;;;;;;17.40;16.60;;;6.60;83.90;;;;;;5055352;28;20051;-83
2022/01/05 01:37:53;;;;;;;17.00;16.20;;;6.60;84.00;;;;;;5055296;28;20029;-83
2022/01/05 01:40:19;;;;;;;17.53;16.73;;;6.60;84.00;;;;;;5073037;28;20424;-83
2022/01/05 01:42:46;;;;;;;16.70;15.90;;;6.60;84.10;;;;;;5071950;28;20043;-83
2022/01/05 01:45:12;;;;;;;16.77;15.97;;;6.50;84.10;;;;;;5074361;28;20039;-83
2022/01/05 01:47:39;;;;;;;17.10;16.30;;;6.50;84.10;;;;;;5055035;28;20024;-83
2022/01/05 01:50:06;;;;;;;17.30;16.50;;;6.50;84.10;;;;;;5071790;28;20056;-82
2022/01/05 01:52:32;;;;;;;17.20;16.40;;;6.50;84.10;;;;;;5072798;28;20023;-83
2022/01/05 01:54:58;;;;;;;17.07;16.27;;;6.50;84.10;;;;;;5072895;28;20036;-82
2022/01/05 01:57:25;;;;;;;17.00;16.20;;;6.40;84.20;;;;;;5056810;28;20381;-83
2022/01/05 01:59:51;;;;;;;17.20;16.40;;;6.40;84.20;;;;;;5085264;28;20043;-83
2022/01/05 02:02:17;;;;;;;17.47;16.67;;;6.40;84.10;;;;;;5066110;28;20024;-83
2022/01/05 02:04:44;;;;;;;17.90;17.00;;;6.40;84.20;;;;;;5071423;28;20035;-83
2022/01/05 02:07:10;;;;;;;18.40;17.50;;;6.40;84.10;;;;;;5054835;28;20025;-82
2022/01/05 02:09:37;;;;;;;17.30;16.50;;;6.40;84.00;;;;;;5071523;28;20477;-83
2022/01/05 02:12:07;;;;;;;17.20;16.40;;;6.30;84.00;;;;;;5074326;28;20040;-83
2022/01/05 02:14:33;;;;;;;17.10;16.30;;;6.30;84.10;;;;;;5054659;28;20036;-83
2022/01/05 02:17:03;;;;;;;17.13;16.20;;;6.40;84.20;;;;;;5070220;28;20048;-83
2022/01/05 02:19:29;;;;;;;16.70;15.90;;;6.30;84.10;;;;;;5069335;28;20059;-83
2022/01/05 02:21:55;;;;;;;17.30;16.50;;;6.30;84.10;;;;;;5071197;28;20025;-83
2022/01/05 02:24:21;;;;;;;16.60;15.80;;;6.30;84.10;;;;;;5056400;28;20044;-82
2022/01/05 02:26:47;;;;;;;17.87;16.77;;;6.30;84.10;;;;;;5070851;28;20388;-82
2022/01/05 02:29:14;;;;;;;17.47;16.67;;;6.20;84.10;;;;;;5072240;28;20033;-82
2022/01/05 02:31:40;;;;;;;17.40;16.60;;;6.20;84.10;;;;;;5071486;28;20485;-83
2022/01/05 02:34:06;;;;;;;18.13;17.23;;;6.10;84.10;;;;;;5070897;28;20567;-83
2022/01/05 02:36:32;;;;;;;17.00;16.20;;;6.10;84.20;;;;;;5068366;28;20033;-83
2022/01/05 02:38:58;;;;;;;17.07;16.27;;;6.10;84.20;;;;;;5054897;28;20028;-83
2022/01/05 02:41:24;;;;;;;17.60;16.70;;;6.10;84.30;;;;;;5088096;28;20036;-83
2022/01/05 02:43:50;;;;;;;16.57;15.77;;;6.10;84.30;;;;;;5088126;28;20439;-83
2022/01/05 02:46:18;;;;;;;18.90;17.27;;;6.10;84.20;;;;;;5086216;28;20036;-83
2022/01/05 02:48:45;;;;;;;17.20;16.40;;;6.10;84.20;;;;;;5087884;28;20035;-83
2022/01/05 02:51:11;;;;;;;16.33;15.60;;;6.10;84.30;;;;;;5079674;28;20040;-83
2022/01/05 02:53:37;;;;;;;17.00;16.20;;;6.00;84.10;;;;;;5070509;28;20032;-83
2022/01/05 02:56:04;;;;;;;16.90;16.10;;;6.00;84.20;;;;;;5063547;28;20051;-83
2022/01/05 02:58:30;;;;;;;17.47;16.67;;;6.00;84.10;;;;;;5086700;28;20037;-83
2022/01/05 03:00:56;;;;;;;17.10;16.30;;;6.00;84.10;;;;;;5078797;28;20041;-82
2022/01/05 03:03:22;;;;;;;16.87;16.07;;;5.90;84.10;;;;;;5088914;28;20533;-83
2022/01/05 03:05:48;;;;;;;17.23;16.43;;;5.90;84.10;;;;;;5098503;28;20039;-82
2022/01/05 03:08:15;;;;;;;16.40;15.67;;;5.90;84.20;;;;;;5062260;28;20021;-82
2022/01/05 03:10:41;;;;;;;17.43;16.60;;;5.90;84.30;;;;;;5070784;28;20045;-82
2022/01/05 03:13:07;;;;;;;16.83;16.03;;;5.90;84.20;;;;;;5062959;28;20032;-82
2022/01/05 03:15:35;;;;;;;16.73;15.93;;;5.90;84.20;;;;;;5086385;28;20041;-82
2022/01/05 03:18:03;;;;;;;17.40;16.50;;;5.80;84.20;;;;;;5075091;28;20029;-83
2022/01/05 03:20:30;;;;;;;16.47;15.73;;;5.80;84.20;;;;;;5052931;28;20036;-83
2022/01/05 03:22:57;;;;;;;16.57;15.80;;;5.80;84.20;;;;;;5084708;28;20100;-83
2022/01/05 03:25:23;;;;;;;17.07;16.17;;;5.80;84.30;;;;;;5079876;28;20500;-82
2022/01/05 03:27:50;;;;;;;17.17;16.37;;;5.80;84.20;;;;;;5053598;28;20485;-83
2022/01/05 03:30:18;;;;;;;17.10;16.30;;;5.80;84.30;;;;;;5052156;28;20017;-83
2022/01/05 03:35:32;;;;;;;;;;;5.70;84.30;;;;;;5072115;28;20032;-82
2022/01/05 03:37:58;;;;;;;16.40;15.60;;;5.70;84.30;;;;;;5067631;28;19916;-83
2022/01/05 03:40:25;;;;;;;16.93;16.13;;;5.70;84.10;;;;;;5068871;28;20060;-82
2022/01/05 03:42:51;;;;;;;16.60;15.80;;;5.70;84.20;;;;;;5079073;28;20040;-82
2022/01/05 03:45:17;;;;;;;18.17;16.77;;;5.70;84.20;;;;;;5085918;28;20032;-82
2022/01/05 03:47:43;;;;;;;17.43;16.10;;;5.60;84.20;;;;;;5079013;28;20473;-82
2022/01/05 03:50:09;;;;;;;16.20;15.43;;;5.60;84.30;;;;;;5054565;28;20413;-83
2022/01/05 03:52:35;;;;;;;16.13;15.43;;;5.60;84.30;;;;;;5085914;28;20033;-82
2022/01/05 03:55:03;;;;;;;16.83;16.03;;;5.60;84.30;;;;;;5096264;28;20048;-82
2022/01/05 03:57:29;;;;;;;15.80;15.10;;;5.60;84.30;;;;;;5096139;28;20477;-82
2022/01/05 03:59:56;;;;;;;17.00;16.20;;;5.60;84.30;;;;;;5053433;28;20041;-83
2022/01/05 04:02:22;;;;;;;16.17;15.47;;;5.60;84.30;;;;;;5069205;28;20035;-82
2022/01/05 04:04:48;;;;;;;17.23;16.33;;;5.60;84.40;;;;;;5069593;28;20041;-83
2022/01/05 04:07:15;;;;;;;16.10;15.40;;;5.60;84.40;;;;;;5085861;28;20033;-83
2022/01/05 04:09:42;;;;;;;16.47;15.67;;;5.60;84.40;;;;;;5096216;28;20025;-83
2022/01/05 04:12:08;;;;;;;16.20;15.50;;;5.60;84.40;;;;;;5052933;28;20512;-82
2022/01/05 04:14:34;;;;;;;16.97;16.17;;;5.60;84.30;;;;;;5069370;28;20037;-82
2022/01/05 04:17:01;;;;;;;16.37;15.63;;;5.60;84.20;;;;;;5053450;28;20497;-82
2022/01/05 04:19:27;;;;;;;16.97;16.17;;;5.50;84.20;;;;;;5085604;28;20029;-82
2022/01/05 04:21:53;;;;;;;15.87;15.17;;;5.50;84.20;;;;;;5086415;28;20029;-82
2022/01/05 04:24:19;;;;;;;16.03;15.30;;;5.50;84.20;;;;;;5069466;28;20409;-82
2022/01/05 04:26:45;;;;;;;15.67;14.97;;;5.50;85.00;;;;;;5085076;28;20021;-82
2022/01/05 04:29:11;;;;;;;16.00;15.30;;;5.50;84.30;;;;;;5086419;28;20405;-82
2022/01/05 04:31:37;;;;;;;16.00;15.30;;;5.50;84.20;;;;;;5084881;28;20048;-82
2022/01/05 04:34:03;;;;;;;16.50;15.70;;;5.50;84.30;;;;;;5058042;28;20437;-82
2022/01/05 04:36:29;;;;;;;15.97;15.27;;;5.50;84.20;;;;;;5090385;28;20043;-83
2022/01/05 04:38:55;;;;;;;15.97;15.27;;;5.50;84.20;;;;;;5057420;28;20025;-82
2022/01/05 04:41:21;;;;;;;16.70;15.90;;;5.50;84.20;;;;;;5057568;28;20043;-83
2022/01/05 04:43:47;;;;;;;16.40;15.60;;;5.50;84.10;;;;;;5090419;28;20421;-82
2022/01/05 04:46:14;;;;;;;15.80;15.10;;;5.50;84.10;;;;;;5056578;28;20068;-82
2022/01/05 04:48:42;;;;;;;17.33;16.43;;;5.50;84.20;;;;;;5057962;28;20021;-82
2022/01/05 04:51:08;;;;;;;16.17;15.37;;;5.50;84.20;;;;;;5055582;28;20071;-82
2022/01/05 04:53:34;;;;;;;15.57;14.87;;;5.50;84.40;;;;;;5090133;28;20024;-82
2022/01/05 04:56:00;;;;;;;16.07;15.37;;;5.40;84.30;;;;;;5057462;28;20028;-83
2022/01/05 04:58:27;;;;;;;16.10;15.40;;;5.40;84.30;;;;;;5089089;28;20032;-83
2022/01/05 05:00:53;;;;;;;15.90;15.20;;;5.40;84.30;;;;;;5089505;28;20041;-83
2022/01/05 05:03:19;;;;;;;17.27;16.10;;;5.40;84.30;;;;;;5082815;28;20029;-83
2022/01/05 05:05:45;;;;;;;16.23;15.53;;;5.50;84.40;;;;;;5089063;28;20025;-82
2022/01/05 05:08:11;;;;;;;16.27;15.57;;;5.50;84.30;;;;;;5090089;28;20021;-83
2022/01/05 05:10:37;;;;;;;16.00;15.30;;;5.50;84.20;;;;;;5088881;28;20466;-83
2022/01/05 05:13:08;;;;;;;16.20;15.50;;;5.50;84.20;;;;;;5082383;28;20035;-83
2022/01/05 05:15:34;;;;;;;15.93;15.23;;;5.50;84.20;;;;;;5088888;28;20049;-83
2022/01/05 05:18:00;;;;;;;16.20;15.40;;;5.50;84.10;;;;;;5056334;28;20029;-82
2022/01/05 05:20:26;;;;;;;16.50;15.70;;;5.50;84.10;;;;;;5089677;28;20037;-82
2022/01/05 05:22:52;;;;;;;15.87;15.17;;;5.50;84.80;;;;;;5057290;28;20029;-83
2022/01/05 05:25:18;;;;;;;17.13;16.17;;;5.50;84.00;;;;;;5088319;28;20032;-83
2022/01/05 05:27:44;;;;;;;16.20;15.50;;;5.50;84.10;;;;;;5089685;28;20036;-82
2022/01/05 05:30:11;;;;;;;16.10;15.40;;;5.50;84.10;;;;;;5056284;28;20044;-83
2022/01/05 05:32:37;;;;;;;15.50;14.80;;;5.50;84.10;;;;;;5088904;28;20033;-83
2022/01/05 05:35:05;;;;;;;16.13;15.37;;;5.50;84.10;;;;;;5089428;28;20024;-83
2022/01/05 05:37:31;;;;;;;15.53;14.83;;;5.50;84.00;;;;;;5088123;28;20036;-82
2022/01/05 05:39:58;;;;;;;16.03;15.33;;;5.50;84.10;;;;;;5098815;28;20037;-83
2022/01/05 05:42:26;;;;;;;16.10;15.40;;;5.50;84.00;;;;;;5089116;28;20027;-82
2022/01/05 05:44:52;;;;;;;16.20;15.40;;;5.50;84.00;;;;;;5087300;28;20021;-82
2022/01/05 05:47:18;;;;;;;15.87;15.17;;;5.40;84.10;;;;;;5056353;28;20539;-82
2022/01/05 05:49:45;;;;;;;18.43;16.10;;;5.40;84.20;;;;;;5088751;28;20029;-82
2022/01/05 05:52:12;;;;;;;16.20;15.50;;;5.40;84.20;;;;;;5062867;28;20504;-82
2022/01/05 05:54:38;;;;;;;16.23;15.53;;;5.40;84.20;;;;;;5091100;28;20040;-82
2022/01/05 05:57:06;;;;;;;16.23;15.53;;;5.30;84.10;;;;;;5096790;28;20275;-80
2022/01/05 05:59:32;;;;;;;15.87;15.17;;;5.40;84.20;;;;;;5103786;28;20031;-81
2022/01/05 06:01:58;;;;;;;15.73;15.03;;;5.30;84.20;;;;;;5101715;28;20308;-81
2022/01/05 06:04:25;;;;;;;16.63;15.83;;;5.30;84.30;;;;;;5057343;28;20036;-81
2022/01/05 06:06:51;;;;;;;15.97;15.27;;;5.30;84.20;;;;;;5057235;28;20390;-82
2022/01/05 06:09:17;;;;;;;16.10;15.30;;;5.30;84.20;;;;;;5087935;28;20382;-81
2022/01/05 06:11:43;;;;;;;16.00;15.27;;;5.30;84.20;;;;;;5097927;28;20029;-81
2022/01/05 06:14:09;;;;;;;16.10;15.40;;;5.20;84.20;;;;;;5097736;28;20020;-81
2022/01/05 06:16:35;;;;;;;16.13;15.43;;;5.20;84.30;;;;;;5060089;28;20056;-81
2022/01/05 06:19:02;;;;;;;16.30;15.60;;;5.20;84.40;;;;;;5088748;28;20043;-81
2022/01/05 06:21:28;;;;;;;16.87;16.07;;;5.20;84.30;;;;;;5088264;28;20051;-82
2022/01/05 06:23:54;;;;;;;15.80;15.10;;;5.20;84.30;;;;;;5087278;28;20386;-82
2022/01/05 06:26:21;;;;;;;17.33;16.40;;;5.20;84.40;;;;;;5056226;28;20029;-82
2022/01/05 06:28:47;;;;;;;16.20;15.50;;;5.10;84.30;;;;;;5087177;28;20041;-81
2022/01/05 06:31:13;;;;;;;18.23;17.13;;;5.10;84.30;;;;;;5087376;28;20045;-81
2022/01/05 06:33:40;;;;;;;16.90;16.10;;;5.10;84.30;;;;;;5058178;28;20044;-81
2022/01/05 06:36:06;;;;;;;16.23;15.40;;;5.10;84.40;;;;;;5087034;28;20041;-83
2022/01/05 06:38:32;;;;;;;15.67;14.97;;;5.10;84.40;;;;;;5087513;28;20021;-82
2022/01/05 06:40:58;;;;;;;16.30;15.57;;;5.10;84.30;;;;;;5072023;28;20056;-82
2022/01/05 06:43:24;;;;;;;16.07;15.37;;;5.10;84.30;;;;;;5078955;28;20020;-82
2022/01/05 06:45:50;;;;;;;15.47;14.77;;;5.00;84.30;;;;;;5063343;28;20040;-82
2022/01/05 06:48:16;;;;;;;16.60;15.70;;;5.00;84.40;;;;;;5087522;28;20270;-82
2022/01/05 06:50:42;;;;;;;16.33;15.57;;;5.00;84.40;;;;;;5097524;28;20036;-82
2022/01/05 06:53:09;;;;;;;16.33;15.63;;;5.00;84.40;;;;;;5087538;28;20025;-82
2022/01/05 06:55:35;;;;;;;15.60;14.90;;;5.00;84.40;;;;;;5069030;28;20504;-82
2022/01/05 06:58:01;;;;;;;16.33;15.60;;;5.00;84.40;;;;;;5055325;28;20036;-82
2022/01/05 07:00:28;;;;;;;16.60;15.80;;;5.00;84.40;;;;;;5070238;28;20037;-82
2022/01/05 07:02:54;;;;;;;16.03;15.33;;;5.00;84.40;;;;;;5053385;28;20037;-82
2022/01/05 07:05:20;;;;;;;16.00;15.30;;;5.00;84.40;;;;;;5087494;28;20025;-82
2022/01/05 07:07:46;;;;;;;16.10;15.40;;;5.00;84.50;;;;;;5086709;28;20048;-82
2022/01/05 07:10:12;;;;;;;16.30;15.60;;;4.90;84.40;;;;;;5063223;28;20063;-82
2022/01/05 07:12:38;;;;;;;16.30;15.50;;;4.90;84.40;;;;;;5087333;28;20017;-82
2022/01/05 07:15:05;;;;;;;16.67;15.87;;;4.90;84.40;;;;;;5063616;28;20039;-82
2022/01/05 07:17:31;;;;;;;16.23;15.53;;;4.90;84.50;;;;;;5096789;28;20051;-82
2022/01/05 07:19:57;;;;;;;16.63;15.83;;;4.80;84.40;;;;;;5064687;28;20040;-82
2022/01/05 07:22:23;;;;;;;16.27;15.57;;;4.80;84.40;;;;;;5054085;28;20037;-82
2022/01/05 07:24:49;;;;;;;16.17;15.43;;;4.80;84.50;;;;;;5055069;28;20437;-82
2022/01/05 07:27:15;;;;;;;15.70;15.00;;;4.80;84.50;;;;;;5087493;28;20039;-82
2022/01/05 07:29:41;;;;;;;17.00;16.07;;;4.80;84.50;;;;;;5093451;28;20389;-82
2022/01/05 07:32:08;;;;;;;16.03;15.33;;;4.80;84.50;;;;;;5056888;28;20037;-82
2022/01/05 07:34:34;;;;;;;16.00;15.30;;;4.80;84.50;;;;;;5053917;28;20029;-82
2022/01/05 07:37:00;;;;;;;15.70;15.00;;;4.90;84.50;;;;;;5086924;28;20084;-82
2022/01/05 07:39:26;;;;;;;16.40;15.50;;;4.80;84.50;;;;;;5087063;28;20028;-82
2022/01/05 07:41:53;;;;;;;15.57;14.87;;;4.80;84.50;;;;;;5085974;28;20397;-82
2022/01/05 07:44:19;;;;;;;15.63;14.93;;;4.90;84.60;;;;;;5086952;28;20029;-82
2022/01/05 07:46:45;;;;;;;15.47;14.77;;;4.90;84.60;;;;;;5054223;28;20048;-82
2022/01/05 07:49:11;;;;;;;15.40;14.70;;;4.90;84.50;;;;;;5096688;28;20021;-82
2022/01/05 07:51:37;;;;;;;15.27;14.57;;;4.90;84.50;;;;;;5054260;28;20477;-82
2022/01/05 07:54:03;;;;;;;16.03;15.10;;;4.90;84.50;;;;;;5053580;28;20021;-82
2022/01/05 07:56:29;;;;;;;15.37;14.67;;;5.00;84.50;;;;;;5054386;28;20062;-82
2022/01/05 07:58:55;;;;;;;15.27;14.57;;;5.00;84.40;;;;;;5096935;28;20389;-82
2022/01/05 08:01:22;;;;;;;15.93;15.13;;;5.00;84.40;;;;;;5052477;28;20041;-82
2022/01/05 08:03:48;;;;;;;14.97;14.27;;;5.00;84.30;;;;;;5054329;28;20036;-82
2022/01/05 08:06:14;;;;;;;15.30;14.60;;;5.00;84.30;;;;;;5086566;28;20481;-82
2022/01/05 08:08:40;;;;;;;15.40;14.70;;;5.00;84.30;;;;;;5075183;28;20351;-82
2022/01/05 08:11:06;;;;;;;15.33;14.63;;;5.00;84.20;;;;;;5057139;28;20378;-82
2022/01/05 08:13:33;;;;;;;15.57;14.77;;;5.00;84.30;;;;;;5085209;28;20514;-82
2022/01/05 08:15:59;;;;;;;14.90;14.20;;;5.10;84.30;;;;;;5089246;28;20055;-82
2022/01/05 08:18:27;;;;;;;15.00;14.30;;;5.10;84.30;;;;;;5052568;28;20041;-86
2022/01/05 08:20:54;;;;;;;16.53;15.63;;;5.10;84.30;;;;;;5087835;28;20051;-83
2022/01/05 08:23:21;;;;;;;15.90;15.20;;;5.20;84.50;;;;;;5102198;28;20017;-87
2022/01/05 08:25:47;;;;;;;14.97;14.27;;;5.30;84.40;;;;;;5102654;28;20035;-83
2022/01/05 08:28:14;;;;;;;16.20;15.50;;;5.30;84.00;;;;;;5102692;28;20036;-84
2022/01/05 08:30:41;;;;;;;15.83;15.13;;;5.40;84.10;;;;;;5053264;28;20500;-83
2022/01/05 08:33:07;;;;;;;15.93;15.23;;;5.40;84.00;;;;;;5053395;28;20025;-84
2022/01/05 08:35:33;;;;;;;15.70;15.00;;;5.40;84.00;;;;;;5086376;28;20044;-84
2022/01/05 08:37:59;;;;;;;15.50;14.80;;;5.40;84.10;;;;;;5084119;28;20478;-84
2022/01/05 08:40:26;;;;;;;17.10;16.10;;;5.40;84.00;;;;;;5085727;28;20392;-86
2022/01/05 08:42:52;;;;;;;17.50;16.60;;;5.50;84.00;;;;;;5052464;28;20028;-88
2022/01/05 08:45:19;;;;;;;17.13;16.33;;;5.50;84.00;;;;;;5068408;28;20032;-83
2022/01/05 08:47:47;;;;;;;16.80;16.00;;;5.60;84.00;;;;;;5087347;28;20381;-84
2022/01/05 08:50:17;;;;;;;16.67;15.87;;;5.60;84.60;;;;;;5070017;28;20032;-85
2022/01/05 08:52:43;;;;;;;15.00;14.30;;;5.60;84.00;;;;;;5053320;28;20040;-82
2022/01/05 08:55:10;;;;;;;15.93;15.23;;;5.70;83.90;;;;;;5069938;28;20031;-82
2022/01/05 08:57:36;;;;;;;16.70;15.90;;;5.80;83.80;;;;;;5052364;28;20048;-82
2022/01/05 09:00:04;;;;;;;15.80;15.10;;;5.80;83.80;;;;;;5069985;28;20389;-82
2022/01/05 09:02:30;;;;;;;16.43;15.63;;;5.80;83.90;;;;;;5067360;28;20049;-82
2022/01/05 09:04:56;;;;;;;16.37;15.47;;;5.80;83.80;;;;;;5069950;28;20035;-82
2022/01/05 09:07:22;;;;;;;15.77;15.07;;;5.90;83.80;;;;;;5068700;28;20036;-82
2022/01/05 09:09:48;;;;;;;17.33;16.20;;;5.90;83.80;;;;;;5068808;28;20355;-82
2022/01/05 09:12:14;;;;;;;17.70;16.70;;;5.90;83.80;;;;;;5070185;28;20040;-82
2022/01/05 09:14:40;;;;;;;15.70;15.00;;;5.90;83.70;;;;;;5053670;28;20393;-82
2022/01/05 09:17:07;;;;;;;15.50;14.80;;;5.90;83.70;;;;;;5068676;28;20425;-82
2022/01/05 09:19:33;;;;;;;16.30;15.50;;;5.90;83.70;;;;;;5069672;28;20035;-82
2022/01/05 09:22:00;;;;;;;16.00;15.20;;;5.90;83.70;;;;;;5055720;28;20036;-83
2022/01/05 09:24:26;;;;;;;16.10;15.30;;;5.90;83.70;;;;;;5073396;28;20032;-83
2022/01/05 09:26:52;;;;;;;16.00;15.20;;;6.00;83.80;;;;;;5090979;28;20052;-83
2022/01/05 09:29:19;;;;;;;15.60;14.90;;;6.00;84.50;;;;;;5088790;28;20470;-83
2022/01/05 09:31:45;;;;;;;15.70;15.00;;;6.00;83.70;;;;;;5105016;28;20029;-84
2022/01/05 09:34:11;;;;;;;15.60;14.90;;;6.10;83.80;;;;;;5073001;28;20401;-84
2022/01/05 09:36:43;;;;;;;15.73;15.03;;;6.10;83.70;;;;;;5073106;28;20044;-83
2022/01/05 09:41:56;;;;;;;15.80;15.10;;;6.20;83.60;;;;;;5066877;28;20056;-82
2022/01/05 09:44:33;;;;;;;16.23;15.53;;;6.20;83.60;;;;;;5061151;28;20037;-82
2022/01/05 09:47:11;;;;;;;16.53;15.77;;;6.20;83.50;;;;;;5060382;28;20036;-82
2022/01/05 09:50:04;;;;;;;16.07;15.37;;;6.30;83.60;;;;;;5068158;28;20374;-82
2022/01/05 09:52:31;;;;;;;15.77;15.07;;;6.40;83.60;;;;;;5097627;28;20032;-82
2022/01/05 09:54:57;;;;;;;15.90;15.20;;;6.40;83.50;;;;;;5086757;28;20390;-82
2022/01/05 09:57:23;;;;;;;17.50;16.27;;;6.50;83.50;;;;;;5103967;28;20381;-83
2022/01/05 09:59:50;;;;;;;16.20;15.50;;;6.50;83.40;;;;;;5074185;28;20036;-84
2022/01/05 10:02:17;;;;;;;15.97;15.27;;;6.50;83.30;;;;;;5057787;28;20045;-83
2022/01/05 10:04:44;;;;;;;16.80;16.00;;;6.60;83.30;;;;;;5058278;28;20390;-83
2022/01/05 10:07:10;;;;;;;16.90;16.10;;;6.60;83.30;;;;;;5058040;28;20032;-82
2022/01/05 10:09:38;;;;;;;17.17;16.37;;;6.60;83.30;;;;;;5054533;28;20496;-83
2022/01/05 10:12:04;;;;;;;17.97;16.83;;;6.60;83.30;;;;;;5073452;28;20021;-84
2022/01/05 10:14:31;;;;;;;18.03;17.03;;;6.60;83.30;;;;;;5100975;28;20025;-81
2022/01/05 10:17:13;;;;;;;18.63;17.37;;;6.60;83.30;;;;;;5099206;28;20063;-79
2022/01/05 10:19:40;;;;;;;16.77;15.97;;;6.70;83.40;;;;;;5071922;28;20393;-82
2022/01/05 10:22:26;;;;;;;17.37;16.53;;;6.70;83.30;;;;;;5052835;28;20055;-79
2022/01/05 10:24:54;;;;;;;16.70;15.90;;;6.70;83.30;;;;;;5071391;28;20029;-80
2022/01/05 10:27:21;;;;;;;18.00;17.10;;;6.70;83.30;;;;;;5071365;28;20087;-82
2022/01/05 10:29:54;;;;;;;18.00;16.90;;;6.70;83.30;;;;;;5089354;28;20043;-83
2022/01/05 10:32:20;;;;;;;17.30;16.40;;;6.70;83.20;;;;;;5103279;28;20385;-82
2022/01/05 10:35:07;;;;;;;17.37;16.57;;;6.80;83.30;;;;;;5086039;28;20031;-82
2022/01/05 10:37:34;;;;;;;17.20;16.40;;;6.80;83.30;;;;;;5085776;28;20041;-80
2022/01/05 10:40:11;;;;;;;17.20;16.40;;;6.90;83.10;;;;;;5087436;28;20021;-80
2022/01/05 10:42:38;;;;;;;16.73;15.93;;;6.90;83.10;;;;;;5056863;28;20098;-78
2022/01/05 10:45:05;;;;;;;16.87;16.07;;;7.00;83.30;;;;;;5072639;28;20020;-84
2022/01/05 10:47:35;;;;;;;16.63;15.83;;;7.00;83.00;;;;;;5088375;28;20036;-80
2022/01/05 10:50:02;;;;;;;18.47;17.10;;;7.00;82.90;;;;;;5071562;28;20393;-83
2022/01/05 10:52:33;;;;;;;17.37;16.57;;;7.10;82.90;;;;;;5070663;28;20032;-83
2022/01/05 10:55:12;;;;;;;17.80;17.00;;;7.10;82.80;;;;;;5036657;28;20036;-81
2022/01/05 10:57:59;;;;;;;17.13;16.33;;;7.10;82.90;;;;;;5070361;28;20021;-82
2022/01/05 11:00:35;;;;;;;17.07;16.27;;;7.10;82.90;;;;;;5070735;28;20036;-82
2022/01/05 11:03:02;;;;;;;17.47;16.67;;;7.10;82.90;;;;;;5102022;28;20036;-83
2022/01/05 11:05:28;;;;;;;17.30;16.50;;;7.10;82.90;;;;;;5104288;28;20032;-82
2022/01/05 11:08:07;;;;;;;17.17;16.37;;;7.10;83.00;;;;;;5103776;28;20031;-82
2022/01/05 11:10:33;;;;;;;16.67;15.87;;;7.10;83.10;;;;;;5086597;28;20032;-82
2022/01/05 11:12:59;;;;;;;17.40;16.60;;;7.10;83.00;;;;;;5085158;28;20036;-82
2022/01/05 11:15:31;;;;;;;17.57;16.77;;;7.20;83.00;;;;;;5069179;28;20402;-82
2022/01/05 11:18:13;;;;;;;17.20;16.40;;;7.20;83.00;;;;;;5072099;28;20028;-82
2022/01/05 11:20:51;;;;;;;17.70;16.90;;;7.20;83.00;;;;;;5100993;28;20020;-83
2022/01/05 11:23:19;;;;;;;17.37;16.57;;;7.30;83.00;;;;;;5069783;28;20040;-83
2022/01/05 11:25:45;;;;;;;17.83;16.93;;;7.30;82.80;;;;;;5071311;28;20405;-82
2022/01/05 11:28:12;;;;;;;17.70;16.87;;;7.40;82.90;;;;;;5070657;28;20489;-82
2022/01/05 11:30:38;;;;;;;17.63;16.83;;;7.40;82.80;;;;;;5066757;28;20040;-82
2022/01/05 11:33:04;;;;;;;17.50;16.70;;;7.50;82.60;;;;;;5069863;28;20040;-83
2022/01/05 11:35:31;;;;;;;17.90;17.10;;;7.50;82.60;;;;;;5089712;28;20029;-82
2022/01/05 11:37:57;;;;;;;17.37;16.57;;;7.60;82.60;;;;;;5106356;28;20028;-83
2022/01/05 11:40:23;;;;;;;18.00;17.10;;;7.60;82.60;;;;;;5079655;28;20032;-83
2022/01/05 11:42:50;;;;;;;17.57;16.77;;;7.70;82.50;;;;;;5051910;28;20512;-84
2022/01/05 11:45:46;;;;;;;17.73;16.93;;;7.70;82.40;;;;;;5052552;28;20028;-83
2022/01/05 11:48:16;;;;;;;17.80;17.00;;;7.80;82.40;;;;;;5068887;28;20487;-83
2022/01/05 11:50:48;;;;;;;17.70;16.90;;;7.90;82.30;;;;;;5071185;28;20380;-83
2022/01/05 11:53:14;;;;;;;18.17;17.27;;;7.90;82.30;;;;;;5067949;28;20362;-83
2022/01/05 11:55:59;;;;;;;18.03;17.17;;;7.90;82.20;;;;;;5051585;28;20024;-83
2022/01/05 11:58:28;;;;;;;17.90;17.10;;;8.00;83.00;;;;;;5070594;28;20401;-83
2022/01/05 12:01:13;;;;;;;19.40;18.10;;;8.00;82.10;;;;;;5049000;28;20033;-83
2022/01/05 12:03:52;;;;;;;18.93;17.97;;;8.00;82.90;;;;;;5033389;28;20490;-83
2022/01/05 12:06:19;;;;;;;18.50;17.63;;;8.00;82.30;;;;;;5050453;28;20387;-83
2022/01/05 12:08:49;;;;;;;18.27;17.47;;;8.00;82.10;;;;;;5067467;28;20037;-83
2022/01/05 12:11:35;;;;;;;18.48;17.58;;;8.00;82.10;;;;;;5049983;28;20033;-83
2022/01/05 12:14:03;;;;;;;18.10;17.23;;;8.00;82.10;;;;;;5049024;28;20207;-83
2022/01/05 12:16:29;;;;;;;18.83;17.93;;;8.10;82.20;;;;;;5052010;28;20041;-83
2022/01/05 12:19:14;;;;;;;18.87;17.97;;;8.10;82.10;;;;;;5069330;28;20029;-83
2022/01/05 12:21:48;;;;;;;18.90;18.00;;;8.20;82.20;;;;;;5055574;28;20059;-83
2022/01/05 12:24:15;;;;;;;18.57;17.73;;;8.20;82.20;;;;;;5053445;28;20036;-83
2022/01/05 12:26:41;;;;;;;18.20;17.40;;;8.20;82.00;;;;;;5071767;28;20047;-82
2022/01/05 12:29:07;;;;;;;19.40;18.50;;;8.30;82.00;;;;;;5069182;28;20040;-83
2022/01/05 12:31:59;;;;;;;19.53;18.43;;;8.30;81.90;;;;;;5066979;28;20029;-83
2022/01/05 12:34:54;;;;;;;18.80;17.90;;;8.40;81.90;;;;;;5068746;28;20033;-83
2022/01/05 12:38:08;;;;;;;17.97;17.17;;;8.50;81.90;;;;;;5069004;28;20033;-83
2022/01/05 12:40:39;;;;;;;18.67;17.77;;;8.50;81.70;;;;;;4992569;28;20045;-82
2022/01/05 12:43:11;;;;;;;18.83;17.95;;;8.60;81.60;;;;;;4974202;28;20049;-83
2022/01/05 12:45:52;;;;;;;18.58;17.70;;;8.60;81.60;;;;;;5009213;28;20037;-82